sensor_id;sensor_type;location;lat;lon;timestamp;temperature;humidity
60242;SHT30;46103;52.076;113.488;2024-03-22T00:02:18;-1.09;67.84
60242;SHT30;46103;52.076;113.488;2024-03-22T00:05:21;-1.34;67.73
60242;SHT30;46103;52.076;113.488;2024-03-22T00:08:23;-1.09;68.34
60242;SHT30;46103;52.076;113.488;2024-03-22T00:11:25;-0.84;67.19
60242;SHT30;46103;52.076;113.488;2024-03-22T00:14:28;-0.79;66.81
60242;SHT30;46103;52.076;113.488;2024-03-22T00:17:30;-0.74;66.59
60242;SHT30;46103;52.076;113.488;2024-03-22T00:20:32;-0.94;66.63
60242;SHT30;46103;52.076;113.488;2024-03-22T00:23:35;-0.80;66.97
60242;SHT30;46103;52.076;113.488;2024-03-22T00:26:37;-0.56;66.18
60242;SHT30;46103;52.076;113.488;2024-03-22T00:29:40;-0.38;65.90
60242;SHT30;46103;52.076;113.488;2024-03-22T00:32:42;-0.11;65.01
60242;SHT30;46103;52.076;113.488;2024-03-22T00:35:47;0.16;64.41
60242;SHT30;46103;52.076;113.488;2024-03-22T00:38:49;0.33;63.65
60242;SHT30;46103;52.076;113.488;2024-03-22T00:41:51;0.62;63.10
60242;SHT30;46103;52.076;113.488;2024-03-22T00:44:53;0.95;62.10
60242;SHT30;46103;52.076;113.488;2024-03-22T00:47:57;0.95;61.01
60242;SHT30;46103;52.076;113.488;2024-03-22T00:50:59;1.03;62.03
60242;SHT30;46103;52.076;113.488;2024-03-22T00:54:01;1.13;61.31
60242;SHT30;46103;52.076;113.488;2024-03-22T00:57:03;1.41;60.40
60242;SHT30;46103;52.076;113.488;2024-03-22T01:00:06;1.61;60.02
60242;SHT30;46103;52.076;113.488;2024-03-22T01:03:09;1.77;59.59
60242;SHT30;46103;52.076;113.488;2024-03-22T01:06:12;1.79;59.60
60242;SHT30;46103;52.076;113.488;2024-03-22T01:09:14;1.98;59.46
60242;SHT30;46103;52.076;113.488;2024-03-22T01:12:16;1.96;59.16
60242;SHT30;46103;52.076;113.488;2024-03-22T01:15:18;2.22;58.94
60242;SHT30;46103;52.076;113.488;2024-03-22T01:18:21;2.36;58.19
60242;SHT30;46103;52.076;113.488;2024-03-22T01:21:22;2.34;58.40
60242;SHT30;46103;52.076;113.488;2024-03-22T01:24:26;2.34;58.20
60242;SHT30;46103;52.076;113.488;2024-03-22T01:27:30;2.32;58.28
60242;SHT30;46103;52.076;113.488;2024-03-22T01:30:33;2.57;57.87
60242;SHT30;46103;52.076;113.488;2024-03-22T01:33:35;2.77;57.20
60242;SHT30;46103;52.076;113.488;2024-03-22T01:36:38;2.95;56.65
60242;SHT30;46103;52.076;113.488;2024-03-22T01:39:39;3.09;56.29
60242;SHT30;46103;52.076;113.488;2024-03-22T01:42:42;3.22;56.14
60242;SHT30;46103;52.076;113.488;2024-03-22T01:45:44;3.51;55.64
60242;SHT30;46103;52.076;113.488;2024-03-22T01:48:47;3.67;54.38
60242;SHT30;46103;52.076;113.488;2024-03-22T01:51:49;3.58;54.68
60242;SHT30;46103;52.076;113.488;2024-03-22T01:54:53;3.73;54.91
60242;SHT30;46103;52.076;113.488;2024-03-22T01:57:55;3.88;54.09
60242;SHT30;46103;52.076;113.488;2024-03-22T02:00:58;3.98;54.13
60242;SHT30;46103;52.076;113.488;2024-03-22T02:04:00;4.28;53.12
60242;SHT30;46103;52.076;113.488;2024-03-22T02:07:03;4.71;52.42
60242;SHT30;46103;52.076;113.488;2024-03-22T02:10:06;4.80;51.05
60242;SHT30;46103;52.076;113.488;2024-03-22T02:13:09;4.60;51.57
60242;SHT30;46103;52.076;113.488;2024-03-22T02:16:12;4.93;50.91
60242;SHT30;46103;52.076;113.488;2024-03-22T02:19:15;5.23;49.93
60242;SHT30;46103;52.076;113.488;2024-03-22T02:22:17;5.44;49.08
60242;SHT30;46103;52.076;113.488;2024-03-22T02:25:20;5.56;48.57
60242;SHT30;46103;52.076;113.488;2024-03-22T02:28:21;5.74;48.09
60242;SHT30;46103;52.076;113.488;2024-03-22T02:31:24;5.75;48.48
60242;SHT30;46103;52.076;113.488;2024-03-22T02:34:27;5.95;47.68
60242;SHT30;46103;52.076;113.488;2024-03-22T02:37:29;6.18;47.00
60242;SHT30;46103;52.076;113.488;2024-03-22T02:40:33;6.43;46.28
60242;SHT30;46103;52.076;113.488;2024-03-22T02:43:35;6.87;45.12
60242;SHT30;46103;52.076;113.488;2024-03-22T02:46:37;6.99;44.72
60242;SHT30;46103;52.076;113.488;2024-03-22T02:49:39;7.29;43.91
60242;SHT30;46103;52.076;113.488;2024-03-22T02:52:40;7.30;42.94
60242;SHT30;46103;52.076;113.488;2024-03-22T02:55:43;7.32;43.42
60242;SHT30;46103;52.076;113.488;2024-03-22T02:58:45;7.55;42.72
60242;SHT30;46103;52.076;113.488;2024-03-22T03:01:48;7.63;42.03
60242;SHT30;46103;52.076;113.488;2024-03-22T03:04:50;7.63;41.82
60242;SHT30;46103;52.076;113.488;2024-03-22T03:07:52;7.71;41.71
60242;SHT30;46103;52.076;113.488;2024-03-22T03:10:53;7.87;41.14
60242;SHT30;46103;52.076;113.488;2024-03-22T03:13:55;7.91;40.76
60242;SHT30;46103;52.076;113.488;2024-03-22T03:16:57;8.06;40.06
60242;SHT30;46103;52.076;113.488;2024-03-22T03:20:00;8.11;39.62
60242;SHT30;46103;52.076;113.488;2024-03-22T03:23:03;8.08;39.86
60242;SHT30;46103;52.076;113.488;2024-03-22T03:26:05;8.11;40.00
60242;SHT30;46103;52.076;113.488;2024-03-22T03:29:07;7.99;39.53
60242;SHT30;46103;52.076;113.488;2024-03-22T03:32:11;8.16;39.65
60242;SHT30;46103;52.076;113.488;2024-03-22T03:35:13;8.28;39.43
60242;SHT30;46103;52.076;113.488;2024-03-22T03:38:16;8.32;38.99
60242;SHT30;46103;52.076;113.488;2024-03-22T03:41:18;8.45;38.46
60242;SHT30;46103;52.076;113.488;2024-03-22T03:44:19;8.54;37.23
60242;SHT30;46103;52.076;113.488;2024-03-22T03:47:21;8.31;37.37
60242;SHT30;46103;52.076;113.488;2024-03-22T03:50:23;8.52;37.66
60242;SHT30;46103;52.076;113.488;2024-03-22T03:53:25;8.42;36.91
60242;SHT30;46103;52.076;113.488;2024-03-22T03:56:26;8.54;36.97
60242;SHT30;46103;52.076;113.488;2024-03-22T03:59:29;8.96;35.92
60242;SHT30;46103;52.076;113.488;2024-03-22T04:02:31;9.36;34.57
60242;SHT30;46103;52.076;113.488;2024-03-22T04:05:33;9.52;34.02
60242;SHT30;46103;52.076;113.488;2024-03-22T04:08:35;9.67;33.92
60242;SHT30;46103;52.076;113.488;2024-03-22T04:11:38;9.77;33.66
60242;SHT30;46103;52.076;113.488;2024-03-22T04:14:40;9.67;34.10
60242;SHT30;46103;52.076;113.488;2024-03-22T04:17:42;9.97;34.21
60242;SHT30;46103;52.076;113.488;2024-03-22T04:20:54;10.46;33.69
60242;SHT30;46103;52.076;113.488;2024-03-22T04:23:56;10.89;33.07
60242;SHT30;46103;52.076;113.488;2024-03-22T04:27:00;11.15;32.80
60242;SHT30;46103;52.076;113.488;2024-03-22T04:30:03;11.10;31.76
60242;SHT30;46103;52.076;113.488;2024-03-22T04:33:05;11.06;31.86
60242;SHT30;46103;52.076;113.488;2024-03-22T04:36:08;11.21;31.58
60242;SHT30;46103;52.076;113.488;2024-03-22T04:39:10;11.43;31.34
60242;SHT30;46103;52.076;113.488;2024-03-22T04:42:14;11.82;30.64
60242;SHT30;46103;52.076;113.488;2024-03-22T04:45:17;11.57;30.58
60242;SHT30;46103;52.076;113.488;2024-03-22T04:48:21;11.30;30.84
60242;SHT30;46103;52.076;113.488;2024-03-22T04:51:23;11.25;30.16
60242;SHT30;46103;52.076;113.488;2024-03-22T04:54:26;10.93;30.65
60242;SHT30;46103;52.076;113.488;2024-03-22T04:57:28;10.52;30.95
60242;SHT30;46103;52.076;113.488;2024-03-22T05:00:30;10.83;30.56
60242;SHT30;46103;52.076;113.488;2024-03-22T05:03:32;10.94;30.37
60242;SHT30;46103;52.076;113.488;2024-03-22T05:06:34;10.31;31.16
60242;SHT30;46103;52.076;113.488;2024-03-22T05:09:38;10.32;31.50
60242;SHT30;46103;52.076;113.488;2024-03-22T05:12:40;10.42;31.04
60242;SHT30;46103;52.076;113.488;2024-03-22T05:15:42;10.69;30.65
60242;SHT30;46103;52.076;113.488;2024-03-22T05:18:44;10.80;28.95
60242;SHT30;46103;52.076;113.488;2024-03-22T05:21:45;11.17;28.74
60242;SHT30;46103;52.076;113.488;2024-03-22T05:24:47;10.75;28.88
60242;SHT30;46103;52.076;113.488;2024-03-22T05:27:49;10.65;29.24
60242;SHT30;46103;52.076;113.488;2024-03-22T05:30:51;10.59;29.21
60242;SHT30;46103;52.076;113.488;2024-03-22T05:33:53;10.29;28.04
60242;SHT30;46103;52.076;113.488;2024-03-22T05:36:55;10.05;28.12
60242;SHT30;46103;52.076;113.488;2024-03-22T05:39:57;10.27;27.60
60242;SHT30;46103;52.076;113.488;2024-03-22T05:42:59;10.86;27.87
60242;SHT30;46103;52.076;113.488;2024-03-22T05:46:01;11.06;27.19
60242;SHT30;46103;52.076;113.488;2024-03-22T05:49:04;10.97;27.36
60242;SHT30;46103;52.076;113.488;2024-03-22T05:52:06;11.36;27.03
60242;SHT30;46103;52.076;113.488;2024-03-22T05:55:09;11.08;27.40
60242;SHT30;46103;52.076;113.488;2024-03-22T05:58:11;11.18;27.32
60242;SHT30;46103;52.076;113.488;2024-03-22T06:01:13;11.04;27.52
60242;SHT30;46103;52.076;113.488;2024-03-22T06:04:15;11.04;27.34
60242;SHT30;46103;52.076;113.488;2024-03-22T06:07:18;10.65;27.63
60242;SHT30;46103;52.076;113.488;2024-03-22T06:10:20;10.50;27.94
60242;SHT30;46103;52.076;113.488;2024-03-22T06:13:23;10.22;28.02
60242;SHT30;46103;52.076;113.488;2024-03-22T06:16:25;10.00;28.57
60242;SHT30;46103;52.076;113.488;2024-03-22T06:19:28;9.60;29.15
60242;SHT30;46103;52.076;113.488;2024-03-22T06:22:30;9.60;29.36
60242;SHT30;46103;52.076;113.488;2024-03-22T06:25:32;10.10;29.25
60242;SHT30;46103;52.076;113.488;2024-03-22T06:28:34;9.91;29.51
60242;SHT30;46103;52.076;113.488;2024-03-22T06:31:38;10.07;30.19
60242;SHT30;46103;52.076;113.488;2024-03-22T06:34:39;10.34;30.10
60242;SHT30;46103;52.076;113.488;2024-03-22T06:37:42;10.57;30.27
60242;SHT30;46103;52.076;113.488;2024-03-22T06:40:45;10.56;30.45
60242;SHT30;46103;52.076;113.488;2024-03-22T06:43:47;11.04;29.91
60242;SHT30;46103;52.076;113.488;2024-03-22T06:46:49;11.54;29.48
60242;SHT30;46103;52.076;113.488;2024-03-22T06:49:52;11.20;29.51
60242;SHT30;46103;52.076;113.488;2024-03-22T06:52:54;11.30;29.35
60242;SHT30;46103;52.076;113.488;2024-03-22T06:55:56;11.79;29.11
60242;SHT30;46103;52.076;113.488;2024-03-22T06:58:58;11.10;29.70
60242;SHT30;46103;52.076;113.488;2024-03-22T07:02:00;10.60;30.81
60242;SHT30;46103;52.076;113.488;2024-03-22T07:05:01;10.02;31.25
60242;SHT30;46103;52.076;113.488;2024-03-22T07:08:04;9.90;31.30
60242;SHT30;46103;52.076;113.488;2024-03-22T07:11:06;10.11;31.13
60242;SHT30;46103;52.076;113.488;2024-03-22T07:14:10;10.45;30.98
60242;SHT30;46103;52.076;113.488;2024-03-22T07:17:12;10.19;31.55
60242;SHT30;46103;52.076;113.488;2024-03-22T07:20:16;9.86;32.13
60242;SHT30;46103;52.076;113.488;2024-03-22T07:23:17;9.89;32.55
60242;SHT30;46103;52.076;113.488;2024-03-22T07:26:20;10.08;32.69
60242;SHT30;46103;52.076;113.488;2024-03-22T07:29:22;9.89;33.28
60242;SHT30;46103;52.076;113.488;2024-03-22T07:32:25;9.90;34.67
60242;SHT30;46103;52.076;113.488;2024-03-22T07:35:28;10.02;36.21
60242;SHT30;46103;52.076;113.488;2024-03-22T07:38:31;10.05;37.44
60242;SHT30;46103;52.076;113.488;2024-03-22T07:41:33;10.28;37.24
60242;SHT30;46103;52.076;113.488;2024-03-22T07:44:36;9.77;37.92
60242;SHT30;46103;52.076;113.488;2024-03-22T07:47:38;9.49;38.90
60242;SHT30;46103;52.076;113.488;2024-03-22T07:50:43;9.31;39.53
60242;SHT30;46103;52.076;113.488;2024-03-22T07:53:45;8.89;40.17
60242;SHT30;46103;52.076;113.488;2024-03-22T07:56:48;8.69;41.04
60242;SHT30;46103;52.076;113.488;2024-03-22T07:59:49;8.67;42.11
60242;SHT30;46103;52.076;113.488;2024-03-22T08:02:52;8.35;42.98
60242;SHT30;46103;52.076;113.488;2024-03-22T08:05:55;8.11;43.59
60242;SHT30;46103;52.076;113.488;2024-03-22T08:08:57;7.81;44.31
60242;SHT30;46103;52.076;113.488;2024-03-22T08:11:59;7.05;47.62
60242;SHT30;46103;52.076;113.488;2024-03-22T08:15:01;6.25;49.99
60242;SHT30;46103;52.076;113.488;2024-03-22T08:18:03;5.99;51.13
60242;SHT30;46103;52.076;113.488;2024-03-22T08:21:05;5.99;51.36
60242;SHT30;46103;52.076;113.488;2024-03-22T08:24:08;5.20;54.05
60242;SHT30;46103;52.076;113.488;2024-03-22T08:27:10;4.68;55.88
60242;SHT30;46103;52.076;113.488;2024-03-22T08:30:13;4.01;56.61
60242;SHT30;46103;52.076;113.488;2024-03-22T08:33:15;3.56;58.33
60242;SHT30;46103;52.076;113.488;2024-03-22T08:36:17;3.30;59.74
60242;SHT30;46103;52.076;113.488;2024-03-22T08:39:19;3.22;60.32
60242;SHT30;46103;52.076;113.488;2024-03-22T08:42:24;3.19;59.89
60242;SHT30;46103;52.076;113.488;2024-03-22T08:45:26;2.99;59.48
60242;SHT30;46103;52.076;113.488;2024-03-22T08:48:29;3.02;60.31
60242;SHT30;46103;52.076;113.488;2024-03-22T08:51:31;2.85;60.35
60242;SHT30;46103;52.076;113.488;2024-03-22T08:54:33;2.77;60.60
60242;SHT30;46103;52.076;113.488;2024-03-22T08:57:36;2.68;60.91
60242;SHT30;46103;52.076;113.488;2024-03-22T09:00:38;2.36;62.16
60242;SHT30;46103;52.076;113.488;2024-03-22T09:03:40;2.41;62.72
60242;SHT30;46103;52.076;113.488;2024-03-22T09:06:42;2.33;63.31
60242;SHT30;46103;52.076;113.488;2024-03-22T09:09:45;2.02;63.98
60242;SHT30;46103;52.076;113.488;2024-03-22T09:12:48;1.88;64.82
60242;SHT30;46103;52.076;113.488;2024-03-22T09:15:57;1.79;65.50
60242;SHT30;46103;52.076;113.488;2024-03-22T09:18:59;1.43;66.64
60242;SHT30;46103;52.076;113.488;2024-03-22T09:22:01;1.29;67.05
60242;SHT30;46103;52.076;113.488;2024-03-22T09:25:04;1.30;67.16
60242;SHT30;46103;52.076;113.488;2024-03-22T09:28:07;1.24;66.62
60242;SHT30;46103;52.076;113.488;2024-03-22T09:31:09;1.07;65.45
60242;SHT30;46103;52.076;113.488;2024-03-22T09:34:13;0.97;64.40
60242;SHT30;46103;52.076;113.488;2024-03-22T09:37:17;0.76;65.31
60242;SHT30;46103;52.076;113.488;2024-03-22T09:40:20;0.81;64.05
60242;SHT30;46103;52.076;113.488;2024-03-22T09:43:22;0.89;64.21
60242;SHT30;46103;52.076;113.488;2024-03-22T09:46:26;0.81;63.54
60242;SHT30;46103;52.076;113.488;2024-03-22T09:49:29;0.72;64.33
60242;SHT30;46103;52.076;113.488;2024-03-22T09:52:31;0.97;64.19
60242;SHT30;46103;52.076;113.488;2024-03-22T09:55:35;1.03;64.14
60242;SHT30;46103;52.076;113.488;2024-03-22T09:58:44;0.95;64.08
60242;SHT30;46103;52.076;113.488;2024-03-22T10:01:46;0.91;65.53
60242;SHT30;46103;52.076;113.488;2024-03-22T10:04:50;0.60;70.06
60242;SHT30;46103;52.076;113.488;2024-03-22T10:07:53;0.46;71.03
60242;SHT30;46103;52.076;113.488;2024-03-22T10:10:56;0.10;73.96
60242;SHT30;46103;52.076;113.488;2024-03-22T10:14:00;0.07;74.71
60242;SHT30;46103;52.076;113.488;2024-03-22T10:17:05;0.20;75.52
60242;SHT30;46103;52.076;113.488;2024-03-22T10:20:07;0.40;76.79
60242;SHT30;46103;52.076;113.488;2024-03-22T10:23:14;0.65;76.81
60242;SHT30;46103;52.076;113.488;2024-03-22T10:26:16;0.79;76.11
60242;SHT30;46103;52.076;113.488;2024-03-22T10:29:20;0.96;76.06
60242;SHT30;46103;52.076;113.488;2024-03-22T10:32:22;1.06;75.91
60242;SHT30;46103;52.076;113.488;2024-03-22T10:35:24;1.15;75.54
60242;SHT30;46103;52.076;113.488;2024-03-22T10:38:28;1.20;75.43
60242;SHT30;46103;52.076;113.488;2024-03-22T10:41:30;1.19;75.07
60242;SHT30;46103;52.076;113.488;2024-03-22T10:44:33;1.16;75.31
60242;SHT30;46103;52.076;113.488;2024-03-22T10:47:37;1.12;75.27
60242;SHT30;46103;52.076;113.488;2024-03-22T10:50:41;1.09;75.51
60242;SHT30;46103;52.076;113.488;2024-03-22T10:53:47;1.05;75.78
60242;SHT30;46103;52.076;113.488;2024-03-22T10:56:51;1.07;75.88
60242;SHT30;46103;52.076;113.488;2024-03-22T10:59:56;1.06;75.32
60242;SHT30;46103;52.076;113.488;2024-03-22T11:03:02;1.00;74.91
60242;SHT30;46103;52.076;113.488;2024-03-22T11:06:07;1.00;74.90
60242;SHT30;46103;52.076;113.488;2024-03-22T11:09:10;0.96;74.73
60242;SHT30;46103;52.076;113.488;2024-03-22T11:12:12;0.75;74.22
60242;SHT30;46103;52.076;113.488;2024-03-22T11:15:19;0.54;70.64
60242;SHT30;46103;52.076;113.488;2024-03-22T11:18:22;0.43;73.40
60242;SHT30;46103;52.076;113.488;2024-03-22T11:21:25;0.37;74.43
60242;SHT30;46103;52.076;113.488;2024-03-22T11:24:32;0.37;72.98
60242;SHT30;46103;52.076;113.488;2024-03-22T11:27:35;0.36;73.36
60242;SHT30;46103;52.076;113.488;2024-03-22T11:30:37;0.33;71.43
60242;SHT30;46103;52.076;113.488;2024-03-22T11:33:40;0.37;71.35
60242;SHT30;46103;52.076;113.488;2024-03-22T11:36:43;0.43;71.74
60242;SHT30;46103;52.076;113.488;2024-03-22T11:39:45;0.40;69.50
60242;SHT30;46103;52.076;113.488;2024-03-22T11:42:52;0.43;69.54
60242;SHT30;46103;52.076;113.488;2024-03-22T11:45:54;0.38;68.00
60242;SHT30;46103;52.076;113.488;2024-03-22T11:48:57;0.34;68.64
60242;SHT30;46103;52.076;113.488;2024-03-22T11:52:01;0.27;68.94
60242;SHT30;46103;52.076;113.488;2024-03-22T11:55:04;0.02;64.87
60242;SHT30;46103;52.076;113.488;2024-03-22T11:58:09;-0.29;54.81
60242;SHT30;46103;52.076;113.488;2024-03-22T12:01:12;-0.55;47.42
60242;SHT30;46103;52.076;113.488;2024-03-22T12:04:14;-0.74;45.14
60242;SHT30;46103;52.076;113.488;2024-03-22T12:07:17;-0.87;44.53
60242;SHT30;46103;52.076;113.488;2024-03-22T12:10:20;-0.95;44.05
60242;SHT30;46103;52.076;113.488;2024-03-22T12:13:22;-1.04;43.95
60242;SHT30;46103;52.076;113.488;2024-03-22T12:16:26;-1.09;43.38
60242;SHT30;46103;52.076;113.488;2024-03-22T12:19:29;-1.16;43.09
60242;SHT30;46103;52.076;113.488;2024-03-22T12:22:31;-1.27;43.51
60242;SHT30;46103;52.076;113.488;2024-03-22T12:25:33;-1.35;43.72
60242;SHT30;46103;52.076;113.488;2024-03-22T12:28:35;-1.39;44.21
60242;SHT30;46103;52.076;113.488;2024-03-22T12:31:37;-1.45;43.76
60242;SHT30;46103;52.076;113.488;2024-03-22T12:34:40;-1.48;44.02
60242;SHT30;46103;52.076;113.488;2024-03-22T12:37:43;-1.56;43.38
60242;SHT30;46103;52.076;113.488;2024-03-22T12:40:45;-1.62;43.71
60242;SHT30;46103;52.076;113.488;2024-03-22T12:43:47;-1.66;44.03
60242;SHT30;46103;52.076;113.488;2024-03-22T12:46:51;-1.74;43.98
60242;SHT30;46103;52.076;113.488;2024-03-22T12:49:54;-1.79;44.50
60242;SHT30;46103;52.076;113.488;2024-03-22T12:52:56;-1.77;45.01
60242;SHT30;46103;52.076;113.488;2024-03-22T12:55:58;-1.80;44.67
60242;SHT30;46103;52.076;113.488;2024-03-22T12:59:07;-1.79;44.96
60242;SHT30;46103;52.076;113.488;2024-03-22T13:02:08;-1.80;45.06
60242;SHT30;46103;52.076;113.488;2024-03-22T13:05:11;-1.83;44.52
60242;SHT30;46103;52.076;113.488;2024-03-22T13:08:14;-1.87;44.71
60242;SHT30;46103;52.076;113.488;2024-03-22T13:11:16;-1.80;44.32
60242;SHT30;46103;52.076;113.488;2024-03-22T13:14:19;-1.87;43.93
60242;SHT30;46103;52.076;113.488;2024-03-22T13:17:21;-1.90;43.88
60242;SHT30;46103;52.076;113.488;2024-03-22T13:20:23;-1.98;42.22
60242;SHT30;46103;52.076;113.488;2024-03-22T13:23:26;-2.04;41.92
60242;SHT30;46103;52.076;113.488;2024-03-22T13:26:28;-2.11;42.76
60242;SHT30;46103;52.076;113.488;2024-03-22T13:29:30;-2.18;43.44
60242;SHT30;46103;52.076;113.488;2024-03-22T13:32:32;-2.24;42.51
60242;SHT30;46103;52.076;113.488;2024-03-22T13:35:35;-2.39;42.54
60242;SHT30;46103;52.076;113.488;2024-03-22T13:38:37;-2.50;42.65
60242;SHT30;46103;52.076;113.488;2024-03-22T13:41:39;-2.67;42.86
60242;SHT30;46103;52.076;113.488;2024-03-22T13:44:42;-2.87;42.95
60242;SHT30;46103;52.076;113.488;2024-03-22T13:47:44;-2.94;43.38
60242;SHT30;46103;52.076;113.488;2024-03-22T13:50:47;-3.09;43.31
60242;SHT30;46103;52.076;113.488;2024-03-22T13:53:48;-3.15;42.66
60242;SHT30;46103;52.076;113.488;2024-03-22T13:56:51;-3.34;42.33
60242;SHT30;46103;52.076;113.488;2024-03-22T13:59:55;-3.49;43.47
60242;SHT30;46103;52.076;113.488;2024-03-22T14:02:56;-3.59;43.03
60242;SHT30;46103;52.076;113.488;2024-03-22T14:05:59;-3.63;43.34
60242;SHT30;46103;52.076;113.488;2024-03-22T14:09:01;-3.67;43.23
60242;SHT30;46103;52.076;113.488;2024-03-22T14:12:05;-3.76;42.79
60242;SHT30;46103;52.076;113.488;2024-03-22T14:15:09;-3.80;43.11
60242;SHT30;46103;52.076;113.488;2024-03-22T14:18:11;-3.80;42.98
60242;SHT30;46103;52.076;113.488;2024-03-22T14:21:14;-3.81;43.14
60242;SHT30;46103;52.076;113.488;2024-03-22T14:24:20;-3.87;43.20
60242;SHT30;46103;52.076;113.488;2024-03-22T14:27:23;-3.87;43.49
60242;SHT30;46103;52.076;113.488;2024-03-22T14:30:26;-3.95;42.88
60242;SHT30;46103;52.076;113.488;2024-03-22T14:33:29;-4.11;42.84
60242;SHT30;46103;52.076;113.488;2024-03-22T14:36:31;-4.25;42.81
60242;SHT30;46103;52.076;113.488;2024-03-22T14:39:34;-4.42;43.34
60242;SHT30;46103;52.076;113.488;2024-03-22T14:42:37;-4.50;43.67
60242;SHT30;46103;52.076;113.488;2024-03-22T14:45:40;-4.62;43.13
60242;SHT30;46103;52.076;113.488;2024-03-22T14:48:42;-4.70;43.00
60242;SHT30;46103;52.076;113.488;2024-03-22T14:51:45;-4.76;43.13
60242;SHT30;46103;52.076;113.488;2024-03-22T14:54:47;-4.79;43.03
60242;SHT30;46103;52.076;113.488;2024-03-22T14:57:51;-4.84;42.86
60242;SHT30;46103;52.076;113.488;2024-03-22T15:00:54;-4.91;42.89
60242;SHT30;46103;52.076;113.488;2024-03-22T15:03:56;-4.95;42.84
60242;SHT30;46103;52.076;113.488;2024-03-22T15:06:58;-5.00;43.48
60242;SHT30;46103;52.076;113.488;2024-03-22T15:10:02;-5.03;42.29
60242;SHT30;46103;52.076;113.488;2024-03-22T15:13:04;-5.07;42.33
60242;SHT30;46103;52.076;113.488;2024-03-22T15:16:08;-5.09;42.23
60242;SHT30;46103;52.076;113.488;2024-03-22T15:19:10;-5.08;41.21
60242;SHT30;46103;52.076;113.488;2024-03-22T15:22:12;-5.04;41.89
60242;SHT30;46103;52.076;113.488;2024-03-22T15:25:17;-5.01;42.14
60242;SHT30;46103;52.076;113.488;2024-03-22T15:28:19;-4.93;41.81
60242;SHT30;46103;52.076;113.488;2024-03-22T15:31:22;-4.94;41.37
60242;SHT30;46103;52.076;113.488;2024-03-22T15:34:25;-5.01;41.03
60242;SHT30;46103;52.076;113.488;2024-03-22T15:37:27;-5.07;42.10
60242;SHT30;46103;52.076;113.488;2024-03-22T15:40:30;-5.07;42.08
60242;SHT30;46103;52.076;113.488;2024-03-22T15:43:36;-5.07;41.33
60242;SHT30;46103;52.076;113.488;2024-03-22T15:46:38;-5.09;41.30
60242;SHT30;46103;52.076;113.488;2024-03-22T15:49:41;-5.14;40.84
60242;SHT30;46103;52.076;113.488;2024-03-22T15:52:45;-5.18;40.02
60242;SHT30;46103;52.076;113.488;2024-03-22T15:55:47;-5.31;40.15
60242;SHT30;46103;52.076;113.488;2024-03-22T15:58:50;-5.32;40.55
60242;SHT30;46103;52.076;113.488;2024-03-22T16:01:52;-5.36;40.50
60242;SHT30;46103;52.076;113.488;2024-03-22T16:04:55;-5.35;41.27
60242;SHT30;46103;52.076;113.488;2024-03-22T16:07:58;-5.40;40.71
60242;SHT30;46103;52.076;113.488;2024-03-22T16:11:01;-5.40;40.89
60242;SHT30;46103;52.076;113.488;2024-03-22T16:14:03;-5.42;40.86
60242;SHT30;46103;52.076;113.488;2024-03-22T16:17:08;-5.44;40.98
60242;SHT30;46103;52.076;113.488;2024-03-22T16:20:11;-5.53;39.40
60242;SHT30;46103;52.076;113.488;2024-03-22T16:23:14;-5.56;40.63
60242;SHT30;46103;52.076;113.488;2024-03-22T16:26:16;-5.58;39.34
60242;SHT30;46103;52.076;113.488;2024-03-22T16:29:19;-5.64;39.07
60242;SHT30;46103;52.076;113.488;2024-03-22T16:32:26;-5.79;37.54
60242;SHT30;46103;52.076;113.488;2024-03-22T16:35:28;-6.07;34.58
60242;SHT30;46103;52.076;113.488;2024-03-22T16:38:31;-6.22;33.03
60242;SHT30;46103;52.076;113.488;2024-03-22T16:41:34;-6.36;33.31
60242;SHT30;46103;52.076;113.488;2024-03-22T16:44:36;-6.42;34.20
60242;SHT30;46103;52.076;113.488;2024-03-22T16:47:40;-6.46;34.37
60242;SHT30;46103;52.076;113.488;2024-03-22T16:50:43;-6.46;34.86
60242;SHT30;46103;52.076;113.488;2024-03-22T16:53:48;-6.46;35.49
60242;SHT30;46103;52.076;113.488;2024-03-22T16:56:50;-6.53;35.58
60242;SHT30;46103;52.076;113.488;2024-03-22T16:59:54;-6.62;35.96
60242;SHT30;46103;52.076;113.488;2024-03-22T17:02:56;-6.70;36.58
60242;SHT30;46103;52.076;113.488;2024-03-22T17:05:59;-6.74;37.44
60242;SHT30;46103;52.076;113.488;2024-03-22T17:09:01;-6.80;37.44
60242;SHT30;46103;52.076;113.488;2024-03-22T17:12:04;-6.87;37.36
60242;SHT30;46103;52.076;113.488;2024-03-22T17:15:09;-6.88;37.89
60242;SHT30;46103;52.076;113.488;2024-03-22T17:18:11;-6.91;38.32
60242;SHT30;46103;52.076;113.488;2024-03-22T17:21:14;-6.90;38.69
60242;SHT30;46103;52.076;113.488;2024-03-22T17:24:17;-6.93;38.53
60242;SHT30;46103;52.076;113.488;2024-03-22T17:27:19;-7.05;38.28
60242;SHT30;46103;52.076;113.488;2024-03-22T17:30:23;-7.11;39.11
60242;SHT30;46103;52.076;113.488;2024-03-22T17:33:25;-7.15;38.71
60242;SHT30;46103;52.076;113.488;2024-03-22T17:36:28;-7.28;38.75
60242;SHT30;46103;52.076;113.488;2024-03-22T17:39:30;-7.42;38.86
60242;SHT30;46103;52.076;113.488;2024-03-22T17:42:33;-7.53;38.94
60242;SHT30;46103;52.076;113.488;2024-03-22T17:45:35;-7.69;39.23
60242;SHT30;46103;52.076;113.488;2024-03-22T17:48:38;-7.74;39.20
60242;SHT30;46103;52.076;113.488;2024-03-22T17:51:41;-7.80;39.66
60242;SHT30;46103;52.076;113.488;2024-03-22T17:54:43;-7.83;39.86
60242;SHT30;46103;52.076;113.488;2024-03-22T17:57:45;-7.91;40.02
60242;SHT30;46103;52.076;113.488;2024-03-22T18:00:48;-7.98;39.70
60242;SHT30;46103;52.076;113.488;2024-03-22T18:03:50;-7.99;39.74
60242;SHT30;46103;52.076;113.488;2024-03-22T18:06:53;-8.05;40.12
60242;SHT30;46103;52.076;113.488;2024-03-22T18:09:55;-8.08;40.39
60242;SHT30;46103;52.076;113.488;2024-03-22T18:12:58;-8.11;40.63
60242;SHT30;46103;52.076;113.488;2024-03-22T18:16:00;-8.22;39.79
60242;SHT30;46103;52.076;113.488;2024-03-22T18:19:03;-8.32;39.95
60242;SHT30;46103;52.076;113.488;2024-03-22T18:22:08;-8.35;40.72
60242;SHT30;46103;52.076;113.488;2024-03-22T18:25:11;-8.35;40.87
60242;SHT30;46103;52.076;113.488;2024-03-22T18:28:14;-8.33;40.38
60242;SHT30;46103;52.076;113.488;2024-03-22T18:31:17;-8.40;39.95
60242;SHT30;46103;52.076;113.488;2024-03-22T18:34:21;-8.42;39.97
60242;SHT30;46103;52.076;113.488;2024-03-22T18:37:24;-8.49;40.11
60242;SHT30;46103;52.076;113.488;2024-03-22T18:40:28;-8.52;40.54
60242;SHT30;46103;52.076;113.488;2024-03-22T18:43:30;-8.57;40.25
60242;SHT30;46103;52.076;113.488;2024-03-22T18:46:34;-8.61;40.85